createdAt,value
2023-03-25T00:00:37.369Z,8.61
2023-03-25T00:01:37.339Z,8.64
2023-03-25T00:02:37.388Z,8.66
2023-03-25T00:03:37.331Z,8.76
2023-03-25T00:04:37.362Z,8.74
2023-03-25T00:05:37.340Z,8.76
2023-03-25T00:06:37.315Z,8.87
2023-03-25T00:07:37.936Z,8.79
2023-03-25T00:08:37.292Z,8.92
2023-03-25T00:09:37.278Z,8.92
2023-03-25T00:10:37.330Z,8.95
2023-03-25T00:11:37.263Z,8.89
2023-03-25T00:12:37.247Z,8.99
2023-03-25T00:13:37.244Z,9.03
2023-03-25T00:14:37.258Z,8.95
2023-03-25T00:15:37.245Z,9.06
2023-03-25T00:16:38.306Z,9.02
2023-03-25T00:17:37.314Z,9.08
2023-03-25T00:18:37.231Z,9.02
2023-03-25T00:19:37.199Z,8.94
2023-03-25T00:20:37.227Z,8.89
2023-03-25T00:21:37.181Z,9.02
2023-03-25T00:22:37.180Z,8.88
2023-03-25T00:23:37.166Z,8.95
2023-03-25T00:24:37.159Z,8.89
2023-03-25T00:25:37.197Z,8.85
2023-03-25T00:26:37.146Z,8.81
2023-03-25T00:27:37.139Z,8.84
2023-03-25T00:28:37.129Z,8.74
2023-03-25T00:29:37.135Z,8.82
2023-03-25T00:30:37.230Z,8.64
2023-03-25T00:31:37.106Z,8.74
2023-03-25T00:32:37.121Z,8.69
2023-03-25T00:33:37.099Z,8.76
2023-03-25T00:34:37.078Z,8.79
2023-03-25T00:35:37.118Z,8.73
2023-03-25T00:36:37.058Z,8.66
2023-03-25T00:37:37.061Z,8.67
2023-03-25T00:38:37.047Z,8.67
2023-03-25T00:39:37.069Z,8.70
2023-03-25T00:40:37.045Z,8.71
2023-03-25T00:41:37.144Z,8.73
2023-03-25T00:42:37.028Z,8.73
2023-03-25T00:43:37.034Z,8.82
2023-03-25T00:44:36.995Z,8.79
2023-03-25T00:45:36.986Z,8.79
2023-03-25T00:46:37.075Z,8.64
2023-03-25T00:47:36.998Z,8.73
2023-03-25T00:48:36.966Z,8.76
2023-03-25T00:49:36.979Z,8.70
2023-03-25T00:50:36.999Z,8.71
2023-03-25T00:51:52.413Z,8.61
2023-03-25T00:52:37.941Z,8.73
2023-03-25T00:53:36.949Z,8.73
2023-03-25T00:54:36.918Z,8.81
2023-03-25T00:55:36.912Z,8.82
2023-03-25T00:56:36.959Z,8.74
2023-03-25T00:57:36.901Z,8.89
2023-03-25T00:58:36.888Z,8.89
2023-03-25T00:59:36.890Z,8.91
2023-03-25T01:00:36.873Z,8.81
2023-03-25T01:01:36.904Z,8.87
2023-03-25T01:02:36.930Z,8.88
2023-03-25T01:03:36.924Z,8.78
2023-03-25T01:04:36.844Z,8.84
2023-03-25T01:05:36.831Z,8.91
2023-03-25T01:06:36.868Z,8.85
2023-03-25T01:07:36.851Z,8.95
2023-03-25T01:08:36.806Z,8.95
2023-03-25T01:09:36.804Z,8.99
2023-03-25T01:10:36.798Z,8.95
2023-03-25T01:11:36.817Z,8.95
2023-03-25T01:12:36.814Z,8.92
2023-03-25T01:13:36.779Z,8.97
2023-03-25T01:14:36.767Z,8.87
2023-03-25T01:15:36.811Z,9.00
2023-03-25T01:16:36.777Z,8.92
2023-03-25T01:17:36.822Z,8.91
2023-03-25T01:18:36.745Z,8.94
2023-03-25T01:19:36.735Z,8.97
2023-03-25T01:20:36.714Z,8.99
2023-03-25T01:21:36.773Z,8.94
2023-03-25T01:22:36.717Z,9.00
2023-03-25T01:23:36.709Z,8.91
2023-03-25T01:24:36.695Z,8.94
2023-03-25T01:25:36.701Z,8.89
2023-03-25T01:26:36.700Z,8.94
2023-03-25T01:27:36.682Z,8.89
2023-03-25T01:28:36.674Z,8.95
2023-03-25T01:29:36.680Z,9.00
2023-03-25T01:30:36.651Z,8.92
2023-03-25T01:31:36.706Z,8.94
2023-03-25T01:32:36.654Z,8.88
2023-03-25T01:33:36.640Z,9.02
2023-03-25T01:34:36.708Z,8.89
2023-03-25T01:35:36.626Z,8.94
2023-03-25T01:36:36.649Z,8.92
2023-03-25T01:37:36.739Z,8.94
2023-03-25T01:38:36.591Z,8.97
2023-03-25T01:39:36.591Z,8.89
2023-03-25T01:40:36.583Z,8.88
2023-03-25T01:41:46.820Z,8.99
2023-03-25T01:42:38.571Z,8.99
2023-03-25T01:43:36.553Z,8.99
2023-03-25T01:44:36.551Z,8.97
2023-03-25T01:45:36.585Z,8.91
2023-03-25T01:46:36.578Z,9.00
2023-03-25T01:47:36.539Z,8.95
2023-03-25T01:48:36.580Z,8.84
2023-03-25T01:49:36.508Z,8.89
2023-03-25T01:50:36.499Z,9.06
2023-03-25T01:51:36.543Z,8.92
2023-03-25T01:52:36.488Z,8.92
2023-03-25T01:53:36.487Z,8.99
2023-03-25T01:54:36.474Z,8.99
2023-03-25T01:55:36.466Z,8.95
2023-03-25T01:56:36.572Z,8.94
2023-03-25T01:57:36.462Z,9.00
2023-03-25T01:58:36.442Z,8.94
2023-03-25T01:59:36.452Z,8.94
2023-03-25T02:00:36.455Z,8.92
2023-03-25T02:01:36.446Z,9.04
2023-03-25T02:02:36.494Z,9.03
2023-03-25T02:03:36.445Z,8.91
2023-03-25T02:04:36.398Z,8.92
2023-03-25T02:05:36.390Z,9.00
2023-03-25T02:06:36.417Z,9.00
2023-03-25T02:07:36.385Z,8.99
2023-03-25T02:08:36.374Z,8.91
2023-03-25T02:09:36.370Z,8.91
2023-03-25T02:10:36.356Z,9.03
2023-03-25T02:11:36.482Z,8.92
2023-03-25T02:12:36.348Z,9.00
2023-03-25T02:13:36.331Z,8.89
2023-03-25T02:14:36.327Z,8.94
2023-03-25T02:15:36.322Z,8.95
2023-03-25T02:16:36.347Z,8.95
2023-03-25T02:17:36.377Z,9.04
2023-03-25T02:18:36.313Z,8.91
2023-03-25T02:19:36.309Z,8.97
2023-03-25T02:20:36.295Z,8.99
2023-03-25T02:21:36.276Z,8.94
2023-03-25T02:22:36.297Z,8.97
2023-03-25T02:23:36.265Z,9.02
2023-03-25T02:24:36.253Z,8.92
2023-03-25T02:25:36.250Z,8.89
2023-03-25T02:26:36.238Z,8.91
2023-03-25T02:27:36.266Z,9.00
2023-03-25T02:28:36.226Z,8.88
2023-03-25T02:29:36.208Z,8.85
2023-03-25T02:30:36.211Z,8.89
2023-03-25T02:31:36.221Z,8.91
2023-03-25T02:32:36.240Z,8.88
2023-03-25T02:33:36.190Z,8.95
2023-03-25T02:34:36.179Z,8.89
2023-03-25T02:35:36.214Z,8.79
2023-03-25T02:36:36.168Z,8.91
2023-03-25T02:37:36.189Z,8.84
2023-03-25T02:38:36.158Z,8.84
2023-03-25T02:39:36.134Z,8.76
2023-03-25T02:40:37.137Z,8.76
2023-03-25T02:41:36.846Z,8.73
2023-03-25T02:42:36.136Z,8.76
2023-03-25T02:43:36.117Z,8.78
2023-03-25T02:44:36.119Z,8.63
2023-03-25T02:45:36.099Z,8.67
2023-03-25T02:46:36.110Z,8.79
2023-03-25T02:47:36.138Z,8.71
2023-03-25T02:48:36.085Z,8.76
2023-03-25T02:49:36.078Z,8.74
2023-03-25T02:50:36.061Z,8.76
2023-03-25T02:51:36.046Z,8.69
2023-03-25T02:52:36.066Z,8.79
2023-03-25T02:53:36.035Z,8.73
2023-03-25T02:54:36.013Z,8.67
2023-03-25T02:55:37.054Z,8.70
2023-03-25T02:56:36.019Z,8.69
2023-03-25T02:57:36.026Z,8.81
2023-03-25T02:58:36.003Z,8.76
2023-03-25T02:59:35.983Z,8.71
2023-03-25T03:00:36.001Z,8.69
2023-03-25T03:01:36.057Z,8.67
2023-03-25T03:02:36.112Z,8.60
2023-03-25T03:03:35.988Z,8.69
2023-03-25T03:04:35.957Z,8.71
2023-03-25T03:05:36.018Z,8.71
2023-03-25T03:06:35.947Z,8.67
2023-03-25T03:07:35.936Z,8.60
2023-03-25T03:08:35.946Z,8.61
2023-03-25T03:09:35.921Z,8.64
2023-03-25T03:10:35.906Z,8.64
2023-03-25T03:11:35.913Z,8.63
2023-03-25T03:12:35.905Z,8.67
2023-03-25T03:13:35.911Z,8.63
2023-03-25T03:14:35.884Z,8.56
2023-03-25T03:15:35.861Z,8.58
2023-03-25T03:16:35.894Z,8.58
2023-03-25T03:17:35.935Z,8.46
2023-03-25T03:18:35.889Z,8.42
2023-03-25T03:19:35.847Z,8.49
2023-03-25T03:20:35.826Z,8.49
2023-03-25T03:21:35.844Z,8.46
2023-03-25T03:22:35.827Z,8.51
2023-03-25T03:23:35.831Z,8.46
2023-03-25T03:24:35.806Z,8.38
2023-03-25T03:25:35.800Z,8.38
2023-03-25T03:26:35.830Z,8.45
2023-03-25T03:27:35.775Z,8.38
2023-03-25T03:28:35.840Z,8.45
2023-03-25T03:29:36.759Z,8.34
2023-03-25T03:30:35.752Z,8.36
2023-03-25T03:31:48.249Z,8.34
2023-03-25T03:32:36.769Z,8.31
2023-03-25T03:33:35.758Z,8.28
2023-03-25T03:34:35.736Z,8.28
2023-03-25T03:35:35.764Z,8.26
2023-03-25T03:36:35.709Z,8.30
2023-03-25T03:37:35.704Z,8.33
2023-03-25T03:38:35.731Z,8.31
2023-03-25T03:39:35.688Z,8.30
2023-03-25T03:40:35.684Z,8.42
2023-03-25T03:41:35.684Z,8.30
2023-03-25T03:42:35.659Z,8.33
2023-03-25T03:43:35.695Z,8.46
2023-03-25T03:44:35.657Z,8.38
2023-03-25T03:45:35.629Z,8.46
2023-03-25T03:46:36.674Z,8.42
2023-03-25T03:47:35.679Z,8.38
2023-03-25T03:48:35.690Z,8.45
2023-03-25T03:49:35.618Z,8.45
2023-03-25T03:50:35.613Z,8.42
2023-03-25T03:51:35.612Z,8.42
2023-03-25T03:52:35.597Z,8.46
2023-03-25T03:53:35.614Z,8.44
2023-03-25T03:54:35.580Z,8.36
2023-03-25T03:55:35.586Z,8.45
2023-03-25T03:56:35.571Z,8.46
2023-03-25T03:57:35.568Z,8.45
2023-03-25T03:58:35.552Z,8.41
2023-03-25T03:59:35.562Z,8.41
2023-03-25T04:00:35.530Z,8.42
2023-03-25T04:01:35.548Z,8.34
2023-03-25T04:02:35.622Z,8.34
2023-03-25T04:03:35.575Z,8.45
2023-03-25T04:04:35.526Z,8.48
2023-03-25T04:05:35.499Z,8.46
2023-03-25T04:06:35.579Z,8.45
2023-03-25T04:07:35.486Z,8.45
2023-03-25T04:08:35.476Z,8.51
2023-03-25T04:09:35.491Z,8.49
2023-03-25T04:10:35.459Z,8.51
2023-03-25T04:11:35.464Z,8.58
2023-03-25T04:12:35.450Z,8.48
2023-03-25T04:13:35.440Z,8.44
2023-03-25T04:14:35.475Z,8.49
2023-03-25T04:15:35.408Z,8.46
2023-03-25T04:16:36.432Z,8.41
2023-03-25T04:17:35.449Z,8.49
2023-03-25T04:18:35.401Z,8.48
2023-03-25T04:19:35.426Z,8.38
2023-03-25T04:20:35.385Z,8.49
2023-03-25T04:21:35.376Z,8.38
2023-03-25T04:22:35.371Z,8.37
2023-03-25T04:23:35.369Z,8.48
2023-03-25T04:24:35.384Z,8.51
2023-03-25T04:25:35.344Z,8.51
2023-03-25T04:26:35.344Z,8.38
2023-03-25T04:27:35.332Z,8.36
2023-03-25T04:28:35.328Z,8.38
2023-03-25T04:29:35.420Z,8.37
2023-03-25T04:30:35.304Z,8.37
2023-03-25T04:31:35.312Z,8.36
2023-03-25T04:32:35.397Z,8.34
2023-03-25T04:33:35.289Z,8.41
2023-03-25T04:34:35.306Z,8.46
2023-03-25T04:35:35.303Z,8.28
2023-03-25T04:36:35.264Z,8.26
2023-03-25T04:37:35.263Z,8.27
2023-03-25T04:38:35.247Z,8.27
2023-03-25T04:39:35.266Z,8.20
2023-03-25T04:40:35.261Z,8.27
2023-03-25T04:41:35.269Z,8.26
2023-03-25T04:42:35.215Z,8.19
2023-03-25T04:43:35.210Z,8.24
2023-03-25T04:44:35.237Z,8.27
2023-03-25T04:45:35.281Z,8.26
2023-03-25T04:46:35.189Z,8.27
2023-03-25T04:47:35.269Z,8.13
2023-03-25T04:48:35.180Z,8.15
2023-03-25T04:49:35.176Z,8.15
2023-03-25T04:50:35.183Z,8.10
2023-03-25T04:51:35.159Z,8.16
2023-03-25T04:52:35.150Z,8.10
2023-03-25T04:53:35.136Z,8.13
2023-03-25T04:54:35.132Z,8.12
2023-03-25T04:55:35.143Z,8.08
2023-03-25T04:56:35.154Z,8.09
2023-03-25T04:57:35.097Z,8.03
2023-03-25T04:58:35.278Z,8.03
2023-03-25T04:59:35.098Z,7.91
2023-03-25T05:00:35.110Z,8.03
2023-03-25T05:01:35.112Z,8.05
2023-03-25T05:02:35.116Z,7.93
2023-03-25T05:03:35.057Z,7.94
2023-03-25T05:04:35.077Z,8.00
2023-03-25T05:05:35.080Z,7.98
2023-03-25T05:06:35.031Z,7.97
2023-03-25T05:07:35.027Z,7.91
2023-03-25T05:08:35.027Z,7.95
2023-03-25T05:09:35.082Z,7.94
2023-03-25T05:10:35.091Z,7.98
2023-03-25T05:11:34.997Z,7.95
2023-03-25T05:12:34.997Z,8.00
2023-03-25T05:13:34.991Z,7.93
2023-03-25T05:14:34.972Z,7.95
2023-03-25T05:15:35.030Z,7.94
2023-03-25T05:16:35.027Z,7.95
2023-03-25T05:17:34.981Z,7.94
2023-03-25T05:18:34.942Z,7.94
2023-03-25T05:19:35.249Z,7.94
2023-03-25T05:20:34.986Z,7.94
2023-03-25T05:21:34.921Z,7.91
2023-03-25T05:22:34.908Z,7.93
2023-03-25T05:23:34.919Z,7.91
2023-03-25T05:24:34.907Z,7.95
2023-03-25T05:25:34.896Z,7.90
2023-03-25T05:26:34.907Z,7.82
2023-03-25T05:27:34.875Z,7.87
2023-03-25T05:28:34.857Z,7.79
2023-03-25T05:29:35.855Z,7.85
2023-03-25T05:30:34.847Z,7.83
2023-03-25T05:31:34.885Z,7.83
2023-03-25T05:32:34.880Z,7.88
2023-03-25T05:33:34.825Z,7.85
2023-03-25T05:34:34.820Z,7.80
2023-03-25T05:35:34.820Z,7.87
2023-03-25T05:36:34.830Z,7.82
2023-03-25T05:37:34.802Z,7.85
2023-03-25T05:38:34.806Z,7.79
2023-03-25T05:39:34.782Z,7.77
2023-03-25T05:40:34.785Z,7.82
2023-03-25T05:41:34.788Z,7.82
2023-03-25T05:42:34.746Z,7.85
2023-03-25T05:43:34.751Z,7.88
2023-03-25T05:44:34.773Z,7.77
2023-03-25T05:45:34.757Z,7.88
2023-03-25T05:46:34.844Z,7.83
2023-03-25T05:47:34.791Z,7.85
2023-03-25T05:48:34.708Z,7.87
2023-03-25T05:49:34.707Z,7.90
2023-03-25T05:50:34.748Z,7.90
2023-03-25T05:51:34.711Z,7.93
2023-03-25T05:52:34.693Z,7.94
2023-03-25T05:53:34.676Z,7.95
2023-03-25T05:54:34.669Z,7.95
2023-03-25T05:55:34.672Z,7.91
2023-03-25T05:56:34.700Z,7.97
2023-03-25T05:57:34.653Z,7.91
2023-03-25T05:58:34.636Z,8.01
2023-03-25T05:59:34.630Z,8.01
2023-03-25T06:00:37.064Z,7.97
2023-03-25T06:01:34.703Z,7.97
2023-03-25T06:02:34.733Z,7.98
2023-03-25T06:03:34.676Z,8.06
2023-03-25T06:04:34.593Z,8.03
2023-03-25T06:05:34.630Z,8.03
2023-03-25T06:06:34.683Z,8.10
2023-03-25T06:07:34.598Z,8.06
2023-03-25T06:08:34.579Z,8.13
2023-03-25T06:09:34.551Z,8.12
2023-03-25T06:10:34.553Z,8.15
2023-03-25T06:11:34.540Z,8.18
2023-03-25T06:12:34.570Z,8.19
2023-03-25T06:13:34.530Z,8.20
2023-03-25T06:14:34.581Z,8.23
2023-03-25T06:15:34.579Z,8.30
2023-03-25T06:16:34.498Z,8.24
2023-03-25T06:17:34.584Z,8.24
2023-03-25T06:18:34.592Z,8.26
2023-03-25T06:19:34.476Z,8.42
2023-03-25T06:20:34.545Z,8.44
2023-03-25T06:21:34.488Z,8.51
2023-03-25T06:22:34.478Z,8.56
2023-03-25T06:23:34.444Z,8.51
2023-03-25T06:24:34.442Z,8.58
2023-03-25T06:25:34.477Z,8.64
2023-03-25T06:26:34.430Z,8.60
2023-03-25T06:27:34.438Z,8.60
2023-03-25T06:28:34.413Z,8.60
2023-03-25T06:29:34.403Z,8.71
2023-03-25T06:30:34.405Z,8.78
2023-03-25T06:31:34.670Z,8.64
2023-03-25T06:32:34.433Z,8.64
2023-03-25T06:33:42.971Z,8.63
2023-03-25T06:34:35.428Z,8.69
2023-03-25T06:35:34.385Z,8.78
2023-03-25T06:36:34.403Z,8.81
2023-03-25T06:37:34.370Z,8.73
2023-03-25T06:38:34.334Z,8.78
2023-03-25T06:39:34.322Z,8.84
2023-03-25T06:40:34.317Z,8.88
2023-03-25T06:41:34.301Z,8.94
2023-03-25T06:42:34.360Z,8.94
2023-03-25T06:43:34.295Z,8.94
2023-03-25T06:44:34.322Z,9.02
2023-03-25T06:45:34.276Z,9.02
2023-03-25T06:46:34.411Z,9.02
2023-03-25T06:47:34.334Z,9.06
2023-03-25T06:48:34.314Z,9.03
2023-03-25T06:49:34.371Z,9.06
2023-03-25T06:50:34.290Z,9.04
2023-03-25T06:51:34.237Z,9.08
2023-03-25T06:52:34.241Z,9.10
2023-03-25T06:53:34.671Z,9.16
2023-03-25T06:54:34.206Z,9.16
2023-03-25T06:55:34.200Z,9.22
2023-03-25T06:56:35.025Z,9.22
2023-03-25T06:57:34.263Z,9.22
2023-03-25T06:58:34.201Z,9.23
2023-03-25T06:59:34.223Z,9.37
2023-03-25T07:00:34.176Z,9.36
2023-03-25T07:01:34.178Z,9.44
2023-03-25T07:02:34.237Z,9.41
2023-03-25T07:03:34.167Z,9.44
2023-03-25T07:04:34.123Z,9.47
2023-03-25T07:05:34.164Z,9.43
2023-03-25T07:06:34.136Z,9.44
2023-03-25T07:07:34.134Z,9.43
2023-03-25T07:08:34.194Z,9.47
2023-03-25T07:09:34.090Z,9.55
2023-03-25T07:10:34.079Z,9.54
2023-03-25T07:11:34.246Z,9.61
2023-03-25T07:12:35.078Z,9.46
2023-03-25T07:13:34.121Z,9.62
2023-03-25T07:14:34.091Z,9.51
2023-03-25T07:15:34.058Z,9.58
2023-03-25T07:16:34.139Z,9.43
2023-03-25T07:17:34.074Z,9.59
2023-03-25T07:18:34.059Z,9.64
2023-03-25T07:19:34.013Z,9.64
2023-03-25T07:20:34.025Z,9.65
2023-03-25T07:21:34.122Z,9.58
2023-03-25T07:22:34.004Z,9.62
2023-03-25T07:23:34.021Z,9.58
2023-03-25T07:24:33.979Z,9.58
2023-03-25T07:25:34.627Z,9.64
2023-03-25T07:26:33.980Z,9.54
2023-03-25T07:27:33.968Z,9.48
2023-03-25T07:28:33.986Z,9.41
2023-03-25T07:29:33.942Z,9.43
2023-03-25T07:30:33.952Z,9.56
2023-03-25T07:31:33.960Z,9.39
2023-03-25T07:32:33.946Z,9.58
2023-03-25T07:33:33.943Z,9.46
2023-03-25T07:34:33.914Z,9.48
2023-03-25T07:35:33.908Z,9.55
2023-03-25T07:36:33.912Z,9.55
2023-03-25T07:37:33.889Z,9.66
2023-03-25T07:38:33.872Z,9.64
2023-03-25T07:39:34.469Z,9.69
2023-03-25T07:40:33.857Z,9.66
2023-03-25T07:41:33.847Z,9.66
2023-03-25T07:42:33.846Z,9.58
2023-03-25T07:43:33.833Z,9.64
2023-03-25T07:44:33.851Z,9.72
2023-03-25T07:45:43.340Z,9.69
2023-03-25T07:46:34.852Z,9.77
2023-03-25T07:47:34.607Z,9.72
2023-03-25T07:48:33.823Z,9.64
2023-03-25T07:49:33.885Z,9.62
2023-03-25T07:50:33.781Z,9.55
2023-03-25T07:51:33.780Z,9.55
2023-03-25T07:52:33.802Z,9.58
2023-03-25T07:53:33.775Z,9.56
2023-03-25T07:54:33.790Z,9.58
2023-03-25T07:55:33.739Z,9.55
2023-03-25T07:56:33.805Z,9.62
2023-03-25T07:57:33.729Z,9.69
2023-03-25T07:58:33.723Z,9.56
2023-03-25T07:59:33.748Z,9.61
2023-03-25T08:00:33.717Z,9.73
2023-03-25T08:01:33.707Z,9.77
2023-03-25T08:02:33.754Z,9.76
2023-03-25T08:03:33.751Z,9.77
2023-03-25T08:04:33.707Z,9.66
2023-03-25T08:05:33.695Z,9.80
2023-03-25T08:06:33.661Z,9.77
2023-03-25T08:07:33.712Z,9.74
2023-03-25T08:08:33.696Z,9.91
2023-03-25T08:09:34.160Z,9.68
2023-03-25T08:10:33.633Z,9.62
2023-03-25T08:11:34.420Z,9.74
2023-03-25T08:12:34.634Z,9.64
2023-03-25T08:13:34.429Z,9.68
2023-03-25T08:14:33.723Z,9.76
2023-03-25T08:15:33.591Z,9.74
2023-03-25T08:16:33.594Z,9.84
2023-03-25T08:17:33.594Z,9.94
2023-03-25T08:18:33.570Z,9.84
2023-03-25T08:19:33.580Z,9.87
2023-03-25T08:20:33.547Z,9.89
2023-03-25T08:21:34.133Z,9.92
2023-03-25T08:22:33.552Z,9.84
2023-03-25T08:23:33.672Z,9.86
2023-03-25T08:24:33.573Z,9.86
2023-03-25T08:25:34.429Z,9.95
2023-03-25T08:26:33.527Z,10.01
2023-03-25T08:27:37.136Z,9.86
2023-03-25T08:28:33.537Z,9.89
2023-03-25T08:29:33.504Z,9.89
2023-03-25T08:30:33.472Z,9.91
2023-03-25T08:31:33.504Z,10.01
2023-03-25T08:32:33.491Z,9.87
2023-03-25T08:33:33.451Z,9.98
2023-03-25T08:34:33.464Z,10.02
2023-03-25T08:35:33.511Z,10.13
2023-03-25T08:36:34.084Z,9.99
2023-03-25T08:37:33.477Z,10.07
2023-03-25T08:38:34.822Z,9.99
2023-03-25T08:39:34.397Z,10.09
2023-03-25T08:40:33.522Z,10.04
2023-03-25T08:41:33.391Z,10.15
2023-03-25T08:42:33.388Z,10.10
2023-03-25T08:43:33.372Z,10.25
2023-03-25T08:44:33.362Z,10.20
2023-03-25T08:45:33.470Z,10.23
2023-03-25T08:46:33.402Z,10.17
2023-03-25T08:47:33.374Z,10.20
2023-03-25T08:48:33.332Z,10.30
2023-03-25T08:49:33.332Z,10.26
2023-03-25T08:50:33.399Z,10.16
2023-03-25T08:51:33.318Z,10.23
2023-03-25T08:52:34.309Z,10.04
2023-03-25T08:53:33.323Z,10.15
2023-03-25T08:54:33.288Z,10.16
2023-03-25T08:55:33.309Z,10.22
2023-03-25T08:56:33.304Z,10.19
2023-03-25T08:57:33.275Z,10.19
2023-03-25T08:58:33.261Z,10.26
2023-03-25T08:59:33.268Z,10.26
2023-03-25T09:00:33.992Z,10.25
2023-03-25T09:01:33.337Z,10.20
2023-03-25T09:02:33.286Z,10.02
2023-03-25T09:03:33.231Z,10.12
2023-03-25T09:04:33.218Z,10.12
2023-03-25T09:05:33.281Z,10.12
2023-03-25T09:06:48.156Z,10.10
2023-03-25T09:07:34.188Z,9.99
2023-03-25T09:08:33.188Z,10.01
2023-03-25T09:09:33.179Z,10.07
2023-03-25T09:10:33.192Z,10.04
2023-03-25T09:11:36.972Z,9.97
2023-03-25T09:12:34.214Z,9.98
2023-03-25T09:13:33.155Z,9.94
2023-03-25T09:14:33.148Z,9.98
2023-03-25T09:15:33.181Z,9.91
2023-03-25T09:16:33.125Z,9.95
2023-03-25T09:17:33.167Z,9.92
2023-03-25T09:18:33.124Z,9.89
2023-03-25T09:19:33.095Z,9.91
2023-03-25T09:20:33.125Z,9.79
2023-03-25T09:21:33.085Z,9.84
2023-03-25T09:22:33.119Z,9.92
2023-03-25T09:23:33.071Z,9.87
2023-03-25T09:24:33.070Z,9.95
2023-03-25T09:25:33.059Z,10.04
2023-03-25T09:26:33.042Z,10.16
2023-03-25T09:27:33.151Z,10.19
2023-03-25T09:28:33.938Z,10.19
2023-03-25T09:29:33.016Z,10.17
2023-03-25T09:30:33.013Z,10.23
2023-03-25T09:31:33.053Z,10.13
2023-03-25T09:32:33.041Z,10.13
2023-03-25T09:33:32.989Z,10.13
2023-03-25T09:34:33.603Z,10.13
2023-03-25T09:35:33.037Z,10.04
2023-03-25T09:36:32.967Z,9.99
2023-03-25T09:37:32.983Z,9.84
2023-03-25T09:38:32.944Z,9.84
2023-03-25T09:39:32.939Z,9.84
2023-03-25T09:40:32.929Z,9.89
2023-03-25T09:41:32.928Z,9.86
2023-03-25T09:42:32.945Z,10.02
2023-03-25T09:43:32.906Z,10.28
2023-03-25T09:44:32.916Z,10.30
2023-03-25T09:45:32.952Z,10.46
2023-03-25T09:46:32.911Z,10.54
2023-03-25T09:47:32.910Z,10.61
2023-03-25T09:48:32.866Z,10.69
2023-03-25T09:49:32.863Z,10.76
2023-03-25T09:50:32.854Z,10.86
2023-03-25T09:51:32.868Z,11.02
2023-03-25T09:52:32.865Z,10.96
2023-03-25T09:53:32.830Z,10.94
2023-03-25T09:54:32.828Z,10.97
2023-03-25T09:55:32.825Z,10.84
2023-03-25T09:56:32.844Z,10.86
2023-03-25T09:57:32.822Z,10.78
2023-03-25T09:58:32.786Z,10.75
2023-03-25T09:59:32.788Z,10.93
2023-03-25T10:00:32.797Z,10.92
2023-03-25T10:01:32.775Z,10.86
2023-03-25T10:02:32.837Z,10.81
2023-03-25T10:03:32.848Z,10.69
2023-03-25T10:04:32.742Z,10.64
2023-03-25T10:05:32.732Z,10.69
2023-03-25T10:06:32.736Z,10.57
2023-03-25T10:07:32.818Z,10.38
2023-03-25T10:08:32.752Z,10.42
2023-03-25T10:09:32.727Z,10.25
2023-03-25T10:10:32.704Z,10.34
2023-03-25T10:11:32.716Z,10.22
2023-03-25T10:12:32.701Z,10.17
2023-03-25T10:13:32.710Z,10.01
2023-03-25T10:14:32.671Z,9.94
2023-03-25T10:15:32.677Z,9.98
2023-03-25T10:16:32.660Z,9.87
2023-03-25T10:17:32.683Z,9.73
2023-03-25T10:18:32.688Z,9.68
2023-03-25T10:19:32.649Z,9.65
2023-03-25T10:20:32.626Z,9.64
2023-03-25T10:21:32.684Z,9.47
2023-03-25T10:22:32.619Z,9.54
2023-03-25T10:23:32.630Z,9.18
2023-03-25T10:24:32.635Z,8.89
2023-03-25T10:25:32.601Z,8.60
2023-03-25T10:26:32.593Z,8.48
2023-03-25T10:27:32.587Z,8.42
2023-03-25T10:28:33.632Z,8.37
2023-03-25T10:29:32.557Z,8.36
2023-03-25T10:30:32.557Z,8.31
2023-03-25T10:31:32.571Z,8.28
2023-03-25T10:32:32.620Z,8.28
2023-03-25T10:33:32.562Z,8.19
2023-03-25T10:34:33.849Z,8.23
2023-03-25T10:35:32.554Z,8.16
2023-03-25T10:36:32.517Z,8.06
2023-03-25T10:37:32.518Z,8.15
2023-03-25T10:38:32.530Z,8.01
2023-03-25T10:39:32.497Z,7.98
2023-03-25T10:40:32.489Z,7.93
2023-03-25T10:41:32.548Z,7.85
2023-03-25T10:42:32.470Z,7.83
2023-03-25T10:43:32.488Z,7.80
2023-03-25T10:44:32.485Z,7.76
2023-03-25T10:45:32.495Z,7.90
2023-03-25T10:46:32.441Z,7.72
2023-03-25T10:47:32.490Z,7.77
2023-03-25T10:48:32.486Z,7.66
2023-03-25T10:49:32.466Z,7.73
2023-03-25T10:50:32.407Z,7.75
2023-03-25T10:51:32.420Z,7.75
2023-03-25T10:52:32.391Z,7.67
2023-03-25T10:53:32.429Z,7.58
2023-03-25T10:54:32.377Z,7.76
2023-03-25T10:55:32.372Z,7.67
2023-03-25T10:56:32.381Z,7.73
2023-03-25T10:57:32.368Z,7.70
2023-03-25T10:58:32.380Z,7.87
2023-03-25T10:59:32.336Z,7.95
2023-03-25T11:00:32.342Z,7.77
2023-03-25T11:01:32.357Z,8.05
2023-03-25T11:02:32.449Z,8.20
2023-03-25T11:03:32.357Z,8.18
2023-03-25T11:04:32.300Z,8.30
2023-03-25T11:05:32.303Z,8.48
2023-03-25T11:06:32.291Z,8.67
2023-03-25T11:07:32.322Z,8.76
2023-03-25T11:08:32.295Z,8.89
2023-03-25T11:09:32.260Z,8.85
2023-03-25T11:10:32.261Z,8.97
2023-03-25T11:11:32.243Z,8.88
2023-03-25T11:12:42.592Z,8.84
2023-03-25T11:13:34.253Z,8.81
2023-03-25T11:14:32.226Z,8.85
2023-03-25T11:15:32.282Z,8.78
2023-03-25T11:16:32.221Z,8.82
2023-03-25T11:17:32.256Z,8.78
2023-03-25T11:18:32.350Z,8.76
2023-03-25T11:19:32.317Z,8.81
2023-03-25T11:20:32.199Z,8.76
2023-03-25T11:21:32.200Z,8.87
2023-03-25T11:22:32.327Z,8.91
2023-03-25T11:23:32.216Z,9.04
2023-03-25T11:24:32.149Z,9.06
2023-03-25T11:25:32.145Z,9.10
2023-03-25T11:26:32.149Z,9.14
2023-03-25T11:27:32.162Z,9.13
2023-03-25T11:28:32.180Z,9.14
2023-03-25T11:29:32.104Z,9.23
2023-03-25T11:30:32.101Z,9.21
2023-03-25T11:31:32.099Z,9.32
2023-03-25T11:32:32.143Z,9.43
2023-03-25T11:33:32.103Z,9.47
2023-03-25T11:34:32.172Z,9.36
2023-03-25T11:35:32.085Z,9.56
2023-03-25T11:36:32.062Z,9.51
2023-03-25T11:37:32.053Z,9.65
2023-03-25T11:38:32.058Z,9.80
2023-03-25T11:39:32.057Z,9.69
2023-03-25T11:40:32.051Z,9.68
2023-03-25T11:41:32.020Z,9.61
2023-03-25T11:42:32.021Z,9.66
2023-03-25T11:43:32.006Z,9.61
2023-03-25T11:44:32.327Z,9.56
2023-03-25T11:45:33.838Z,9.72
2023-03-25T11:46:31.990Z,9.74
2023-03-25T11:47:32.021Z,9.95
2023-03-25T11:48:31.998Z,10.02
2023-03-25T11:49:32.012Z,10.01
2023-03-25T11:50:31.973Z,10.15
2023-03-25T11:51:31.941Z,10.17
2023-03-25T11:52:32.136Z,10.02
2023-03-25T11:53:31.922Z,9.92
2023-03-25T11:54:31.943Z,9.99
2023-03-25T11:55:31.910Z,10.05
2023-03-25T11:56:31.922Z,9.89
2023-03-25T11:57:32.870Z,9.87
2023-03-25T11:58:32.887Z,9.87
2023-03-25T11:59:31.945Z,9.92
2023-03-25T12:00:31.926Z,9.92
2023-03-25T12:01:31.855Z,9.68
2023-03-25T12:02:31.899Z,9.64
2023-03-25T12:03:31.926Z,9.72
2023-03-25T12:04:31.866Z,9.54
2023-03-25T12:05:31.835Z,9.51
2023-03-25T12:06:31.877Z,9.68
2023-03-25T12:07:31.823Z,9.89
2023-03-25T12:08:31.815Z,9.97
2023-03-25T12:09:31.829Z,10.12
2023-03-25T12:10:31.806Z,10.31
2023-03-25T12:11:31.793Z,10.33
2023-03-25T12:12:31.807Z,10.53
2023-03-25T12:13:31.790Z,10.49
2023-03-25T12:14:31.798Z,10.60
2023-03-25T12:15:31.768Z,10.72
2023-03-25T12:16:31.800Z,10.60
2023-03-25T12:17:31.831Z,10.60
2023-03-25T12:18:31.748Z,10.61
2023-03-25T12:19:31.763Z,10.67
2023-03-25T12:20:31.731Z,10.67
2023-03-25T12:21:31.717Z,10.67
2023-03-25T12:22:31.745Z,10.67
2023-03-25T12:23:31.697Z,10.67
2023-03-25T12:24:31.775Z,10.61
2023-03-25T12:25:31.683Z,10.49
2023-03-25T12:26:31.805Z,10.51
2023-03-25T12:27:31.704Z,10.60
2023-03-25T12:28:31.657Z,10.54
2023-03-25T12:29:31.677Z,10.51
2023-03-25T12:30:31.662Z,10.54
2023-03-25T12:31:31.670Z,10.59
2023-03-25T12:32:31.660Z,10.68
2023-03-25T12:33:31.638Z,10.75
2023-03-25T12:34:31.636Z,10.68
2023-03-25T12:35:31.635Z,10.71
2023-03-25T12:36:31.607Z,10.74
2023-03-25T12:37:31.618Z,10.86
2023-03-25T12:38:31.582Z,10.90
2023-03-25T12:39:42.282Z,10.94
2023-03-25T12:40:33.589Z,10.84
2023-03-25T12:41:31.602Z,10.92
2023-03-25T12:42:31.559Z,10.82
2023-03-25T12:43:31.547Z,10.82
2023-03-25T12:44:31.660Z,10.96
2023-03-25T12:45:31.607Z,11.07
2023-03-25T12:46:31.616Z,11.19
2023-03-25T12:47:31.523Z,11.23
2023-03-25T12:48:31.521Z,11.15
2023-03-25T12:49:31.628Z,11.10
2023-03-25T12:50:32.598Z,11.25
2023-03-25T12:51:31.478Z,11.35
2023-03-25T12:52:31.465Z,11.35
2023-03-25T12:53:31.459Z,11.51
2023-03-25T12:54:31.768Z,11.65
2023-03-25T12:55:31.443Z,11.87
2023-03-25T12:56:31.511Z,12.13
2023-03-25T12:57:31.460Z,12.17
2023-03-25T12:58:31.444Z,12.29
2023-03-25T12:59:31.464Z,12.31
2023-03-25T13:00:31.409Z,12.43
2023-03-25T13:01:31.444Z,12.43
2023-03-25T13:02:31.465Z,12.27
2023-03-25T13:03:31.423Z,12.47
2023-03-25T13:04:31.415Z,12.43
2023-03-25T13:05:31.369Z,12.25
2023-03-25T13:06:31.359Z,12.10
2023-03-25T13:07:32.550Z,11.95
2023-03-25T13:08:31.350Z,11.84
2023-03-25T13:09:31.362Z,11.83
2023-03-25T13:10:31.329Z,11.81
2023-03-25T13:11:31.325Z,11.83
2023-03-25T13:12:31.317Z,11.80
2023-03-25T13:13:31.306Z,11.84